createdAt,value
2018-12-25T00:00:40.847Z,11.50
2018-12-25T00:01:40.872Z,12.00
2018-12-25T00:02:40.894Z,11.30
2018-12-25T00:03:40.918Z,12.50
2018-12-25T00:04:40.942Z,13.40
2018-12-25T00:05:40.965Z,15.20
2018-12-25T00:06:40.987Z,14.30
2018-12-25T00:07:41.014Z,14.70
2018-12-25T00:08:41.036Z,15.30
2018-12-25T00:09:41.058Z,17.90
2018-12-25T00:10:41.083Z,16.20
2018-12-25T00:11:41.107Z,18.60
2018-12-25T00:12:41.131Z,18.60
2018-12-25T00:13:41.153Z,18.00
2018-12-25T00:14:41.178Z,19.40
2018-12-25T00:15:41.280Z,20.50
2018-12-25T00:16:41.226Z,19.60
2018-12-25T00:17:41.248Z,18.40
2018-12-25T00:18:41.271Z,21.40
2018-12-25T00:19:41.295Z,19.60
2018-12-25T00:20:41.323Z,20.50
2018-12-25T00:21:41.343Z,20.20
2018-12-25T00:22:41.366Z,19.90
2018-12-25T00:23:41.390Z,18.70
2018-12-25T00:24:41.414Z,19.40
2018-12-25T00:25:41.437Z,20.20
2018-12-25T00:26:41.461Z,19.90
2018-12-25T00:27:41.485Z,18.40
2018-12-25T00:28:41.509Z,17.90
2018-12-25T00:29:41.532Z,18.10
2018-12-25T00:30:41.556Z,18.00
2018-12-25T00:31:41.584Z,17.40
2018-12-25T00:32:41.604Z,18.50
2018-12-25T00:33:41.628Z,20.20
2018-12-25T00:34:41.677Z,22.00
2018-12-25T00:35:41.725Z,19.80
2018-12-25T00:36:41.698Z,18.80
2018-12-25T00:37:41.723Z,18.00
2018-12-25T00:38:41.746Z,17.60
2018-12-25T00:39:41.770Z,14.80
2018-12-25T00:40:41.795Z,15.00
2018-12-25T00:41:41.817Z,18.60
2018-12-25T00:42:41.842Z,17.60
2018-12-25T00:43:41.865Z,18.90
2018-12-25T00:44:41.890Z,18.20
2018-12-25T00:45:41.914Z,16.90
2018-12-25T00:46:41.936Z,19.40
2018-12-25T00:47:41.962Z,21.80
2018-12-25T00:48:41.987Z,21.20
2018-12-25T00:49:42.009Z,19.80
2018-12-25T00:50:42.032Z,20.80
2018-12-25T00:51:42.062Z,24.40
2018-12-25T00:52:42.082Z,24.70
2018-12-25T00:53:42.105Z,23.70
2018-12-25T00:54:42.135Z,22.80
2018-12-25T00:55:42.154Z,21.40
2018-12-25T00:56:42.177Z,21.20
2018-12-25T00:57:42.202Z,19.80
2018-12-25T00:58:42.225Z,17.60
2018-12-25T00:59:42.251Z,18.60
2018-12-25T01:00:42.274Z,18.40
2018-12-25T01:01:42.297Z,19.30
2018-12-25T01:02:42.371Z,18.70
2018-12-25T01:03:42.345Z,18.50
2018-12-25T01:04:42.371Z,17.30
2018-12-25T01:05:42.392Z,17.50
2018-12-25T01:06:42.417Z,18.40
2018-12-25T01:07:42.444Z,16.90
2018-12-25T01:08:42.464Z,16.70
2018-12-25T01:09:42.489Z,17.30
2018-12-25T01:10:42.514Z,17.10
2018-12-25T01:11:42.538Z,17.00
2018-12-25T01:12:42.562Z,15.70
2018-12-25T01:13:42.585Z,16.20
2018-12-25T01:14:42.610Z,15.80
2018-12-25T01:15:42.634Z,16.20
2018-12-25T01:16:42.658Z,14.50
2018-12-25T01:17:42.685Z,15.30
2018-12-25T01:18:42.706Z,14.20
2018-12-25T01:19:42.730Z,15.20
2018-12-25T01:20:42.754Z,13.60
2018-12-25T01:21:42.778Z,14.00
2018-12-25T01:22:42.803Z,14.00
2018-12-25T01:23:42.827Z,13.40
2018-12-25T01:24:42.851Z,13.90
2018-12-25T01:25:42.874Z,14.20
2018-12-25T01:26:42.896Z,14.80
2018-12-25T01:27:42.928Z,16.50
2018-12-25T01:28:42.948Z,15.50
2018-12-25T01:29:42.969Z,15.50
2018-12-25T01:30:42.995Z,15.30
2018-12-25T01:31:43.021Z,15.80
2018-12-25T01:32:43.045Z,15.20
2018-12-25T01:33:43.066Z,15.90
2018-12-25T01:34:43.092Z,16.30
2018-12-25T01:35:43.115Z,17.10
2018-12-25T01:36:43.138Z,16.10
2018-12-25T01:37:43.164Z,16.50
2018-12-25T01:38:43.189Z,15.50
2018-12-25T01:39:43.211Z,15.40
2018-12-25T01:40:43.236Z,13.90
2018-12-25T01:41:43.259Z,15.00
2018-12-25T01:42:43.283Z,13.60
2018-12-25T01:43:43.307Z,14.00
2018-12-25T01:44:43.385Z,13.20
2018-12-25T01:45:43.355Z,14.20
2018-12-25T01:46:43.381Z,14.50
2018-12-25T01:47:43.405Z,13.70
2018-12-25T01:48:43.428Z,15.30
2018-12-25T01:49:43.455Z,14.20
2018-12-25T01:50:43.479Z,14.70
2018-12-25T01:51:43.500Z,15.10
2018-12-25T01:52:43.524Z,13.70
2018-12-25T01:53:43.549Z,14.30
2018-12-25T01:54:43.571Z,12.30
2018-12-25T01:55:43.597Z,12.60
2018-12-25T01:56:43.620Z,12.00
2018-12-25T01:57:43.644Z,12.80
2018-12-25T01:58:43.668Z,12.60
2018-12-25T01:59:43.692Z,11.60
2018-12-25T02:00:43.715Z,12.20
2018-12-25T02:01:43.739Z,12.80
2018-12-25T02:02:43.765Z,12.20
2018-12-25T02:03:43.790Z,11.70
2018-12-25T02:04:43.812Z,11.70
2018-12-25T02:05:43.835Z,12.00
2018-12-25T02:06:43.859Z,10.90
2018-12-25T02:07:43.883Z,12.20
2018-12-25T02:08:43.908Z,11.70
2018-12-25T02:09:43.931Z,12.70
2018-12-25T02:10:43.955Z,13.30
2018-12-25T02:11:43.980Z,12.90
2018-12-25T02:12:44.003Z,12.10
2018-12-25T02:13:44.028Z,11.90
2018-12-25T02:14:44.051Z,12.80
2018-12-25T02:15:44.076Z,12.60
2018-12-25T02:16:44.100Z,13.00
2018-12-25T02:17:44.122Z,12.70
2018-12-25T02:18:44.147Z,12.70
2018-12-25T02:19:44.172Z,12.80
2018-12-25T02:20:44.196Z,13.10
2018-12-25T02:21:44.218Z,12.70
2018-12-25T02:22:44.242Z,12.70
2018-12-25T02:23:44.268Z,12.40
2018-12-25T02:24:44.291Z,12.40
2018-12-25T02:25:44.315Z,11.70
2018-12-25T02:26:44.339Z,11.90
2018-12-25T02:27:44.363Z,11.50
2018-12-25T02:28:44.388Z,12.10
2018-12-25T02:29:44.409Z,12.80
2018-12-25T02:30:44.438Z,13.70
2018-12-25T02:31:44.460Z,13.30
2018-12-25T02:32:44.483Z,13.30
2018-12-25T02:33:44.509Z,14.80
2018-12-25T02:34:44.532Z,13.40
2018-12-25T02:35:44.556Z,14.20
2018-12-25T02:36:44.580Z,13.50
2018-12-25T02:37:44.602Z,14.40
2018-12-25T02:38:44.625Z,12.90
2018-12-25T02:39:44.652Z,13.20
2018-12-25T02:40:44.676Z,12.80
2018-12-25T02:41:44.698Z,12.80
2018-12-25T02:42:44.720Z,13.40
2018-12-25T02:43:44.747Z,12.70
2018-12-25T02:44:44.770Z,13.50
2018-12-25T02:45:44.793Z,13.60
2018-12-25T02:46:44.830Z,13.60
2018-12-25T02:47:44.842Z,13.80
2018-12-25T02:48:44.879Z,13.20
2018-12-25T02:49:50.177Z,13.50
2018-12-25T02:50:44.911Z,13.60
2018-12-25T02:51:44.936Z,13.50
2018-12-25T02:52:44.960Z,13.80
2018-12-25T02:53:44.984Z,14.10
2018-12-25T02:54:45.007Z,12.70
2018-12-25T02:55:45.034Z,13.80
2018-12-25T02:56:45.055Z,13.90
2018-12-25T02:57:45.079Z,13.60
2018-12-25T02:58:45.102Z,13.60
2018-12-25T02:59:45.125Z,13.50
2018-12-25T03:00:46.635Z,13.00
2018-12-25T03:01:45.174Z,14.60
2018-12-25T03:02:45.199Z,13.10
2018-12-25T03:03:45.221Z,13.90
2018-12-25T03:04:45.244Z,14.50
2018-12-25T03:05:45.519Z,14.40
2018-12-25T03:06:45.292Z,13.80
2018-12-25T03:07:45.313Z,13.70
2018-12-25T03:08:45.341Z,14.80
2018-12-25T03:09:45.361Z,14.40
2018-12-25T03:10:45.384Z,14.70
2018-12-25T03:11:45.409Z,14.20
2018-12-25T03:12:45.432Z,15.00
2018-12-25T03:13:45.454Z,15.20
2018-12-25T03:14:45.478Z,15.20
2018-12-25T03:15:45.503Z,14.90
2018-12-25T03:16:45.538Z,14.80
2018-12-25T03:17:45.548Z,14.00
2018-12-25T03:18:45.573Z,14.70
2018-12-25T03:19:45.597Z,14.50
2018-12-25T03:20:45.619Z,15.50
2018-12-25T03:21:45.642Z,15.70
2018-12-25T03:22:45.665Z,15.40
2018-12-25T03:23:45.692Z,16.70
2018-12-25T03:24:45.719Z,15.60
2018-12-25T03:25:45.735Z,15.80
2018-12-25T03:26:45.760Z,17.10
2018-12-25T03:27:45.781Z,17.00
2018-12-25T03:28:45.804Z,16.50
2018-12-25T03:29:45.828Z,16.60
2018-12-25T03:30:45.853Z,16.20
2018-12-25T03:31:45.893Z,16.00
2018-12-25T03:32:45.900Z,15.40
2018-12-25T03:33:45.933Z,15.50
2018-12-25T03:34:45.945Z,14.50
2018-12-25T03:35:45.968Z,14.10
2018-12-25T03:36:45.991Z,14.30
2018-12-25T03:37:46.017Z,16.00
2018-12-25T03:38:46.042Z,15.80
2018-12-25T03:39:46.069Z,16.30
2018-12-25T03:40:46.084Z,15.60
2018-12-25T03:41:46.109Z,16.50
2018-12-25T03:42:46.131Z,16.70
2018-12-25T03:43:46.155Z,16.80
2018-12-25T03:44:46.176Z,17.00
2018-12-25T03:45:46.200Z,16.20
2018-12-25T03:46:46.223Z,15.10
2018-12-25T03:47:46.247Z,14.90
2018-12-25T03:48:46.274Z,15.70
2018-12-25T03:49:46.291Z,14.10
2018-12-25T03:50:46.315Z,15.00
2018-12-25T03:51:46.338Z,13.90
2018-12-25T03:52:46.362Z,14.10
2018-12-25T03:53:46.386Z,18.10
2018-12-25T03:54:46.407Z,20.50
2018-12-25T03:55:46.432Z,18.60
2018-12-25T03:56:46.454Z,17.30
2018-12-25T03:57:46.475Z,16.40
2018-12-25T03:58:46.634Z,17.70
2018-12-25T03:59:46.523Z,17.90
2018-12-25T04:00:46.545Z,22.00
2018-12-25T04:01:46.572Z,20.40
2018-12-25T04:02:46.592Z,22.60
2018-12-25T04:03:46.617Z,23.10
2018-12-25T04:04:46.641Z,20.70
2018-12-25T04:05:46.675Z,20.80
2018-12-25T04:06:46.685Z,23.60
2018-12-25T04:07:46.711Z,22.90
2018-12-25T04:08:46.732Z,24.30
2018-12-25T04:09:46.769Z,23.90
2018-12-25T04:10:46.793Z,23.70
2018-12-25T04:11:46.801Z,23.60
2018-12-25T04:12:46.824Z,23.10
2018-12-25T04:13:46.847Z,23.70
2018-12-25T04:14:46.872Z,25.20
2018-12-25T04:15:46.893Z,23.10
2018-12-25T04:16:46.920Z,22.60
2018-12-25T04:17:46.940Z,21.80
2018-12-25T04:18:46.963Z,22.70
2018-12-25T04:19:46.989Z,22.70
2018-12-25T04:20:47.010Z,21.40
2018-12-25T04:21:47.032Z,20.70
2018-12-25T04:22:47.057Z,23.40
2018-12-25T04:23:47.085Z,23.10
2018-12-25T04:24:47.103Z,22.10
2018-12-25T04:25:47.126Z,24.60
2018-12-25T04:26:47.239Z,26.00
2018-12-25T04:27:47.174Z,27.10
2018-12-25T04:28:47.195Z,26.80
2018-12-25T04:29:47.220Z,30.00
2018-12-25T04:30:47.244Z,25.60
2018-12-25T04:31:47.272Z,26.40
2018-12-25T04:32:47.289Z,25.00
2018-12-25T04:33:47.311Z,25.00
2018-12-25T04:34:47.337Z,26.00
2018-12-25T04:35:47.359Z,28.40
2018-12-25T04:36:47.382Z,26.30
2018-12-25T04:37:47.402Z,31.30
2018-12-25T04:38:47.427Z,30.80
2018-12-25T04:39:47.451Z,29.60
2018-12-25T04:40:47.475Z,29.90
2018-12-25T04:41:47.496Z,27.30
2018-12-25T04:42:47.521Z,29.30
2018-12-25T04:43:47.548Z,27.40
2018-12-25T04:44:47.568Z,23.20
2018-12-25T04:45:47.589Z,24.60
2018-12-25T04:46:47.612Z,24.60
2018-12-25T04:47:47.636Z,25.80
2018-12-25T04:48:47.752Z,24.20
2018-12-25T04:49:47.688Z,20.80
2018-12-25T04:50:47.705Z,21.70
2018-12-25T04:51:47.729Z,20.30
2018-12-25T04:52:47.752Z,22.40
2018-12-25T04:53:47.773Z,18.30
2018-12-25T04:54:47.803Z,18.30
2018-12-25T04:55:47.824Z,17.60
2018-12-25T04:56:47.844Z,20.50
2018-12-25T04:57:47.867Z,21.00
2018-12-25T04:58:47.891Z,21.90
2018-12-25T04:59:47.914Z,23.30
2018-12-25T05:00:47.939Z,24.50
2018-12-25T05:01:47.960Z,26.30
2018-12-25T05:02:47.983Z,25.80
2018-12-25T05:03:48.006Z,22.20
2018-12-25T05:04:48.030Z,19.00
2018-12-25T05:05:48.053Z,22.50
2018-12-25T05:06:48.076Z,24.10
2018-12-25T05:07:48.099Z,24.40
2018-12-25T05:08:48.128Z,23.90
2018-12-25T05:09:48.146Z,25.30
2018-12-25T05:10:48.169Z,26.90
2018-12-25T05:11:48.192Z,29.90
2018-12-25T05:12:48.215Z,28.50
2018-12-25T05:13:48.236Z,25.80
2018-12-25T05:14:48.261Z,25.90
2018-12-25T05:15:48.285Z,26.30
2018-12-25T05:16:48.308Z,24.70
2018-12-25T05:17:48.330Z,24.30
2018-12-25T05:18:48.354Z,27.80
2018-12-25T05:19:48.377Z,25.50
2018-12-25T05:20:48.401Z,27.90
2018-12-25T05:21:48.422Z,24.70
2018-12-25T05:22:48.447Z,23.60
2018-12-25T05:23:48.470Z,24.90
2018-12-25T05:24:48.493Z,24.00
2018-12-25T05:25:48.515Z,26.70
2018-12-25T05:26:48.539Z,28.00
2018-12-25T05:27:48.562Z,24.50
2018-12-25T05:28:48.585Z,23.70
2018-12-25T05:29:50.720Z,25.40
2018-12-25T05:30:48.631Z,23.10
2018-12-25T05:31:48.654Z,22.80
2018-12-25T05:32:48.678Z,28.10
2018-12-25T05:33:48.700Z,30.20
2018-12-25T05:34:48.723Z,28.10
2018-12-25T05:35:48.747Z,28.10
2018-12-25T05:36:48.772Z,32.90
2018-12-25T05:37:48.793Z,30.80
2018-12-25T05:38:48.818Z,32.30
2018-12-25T05:39:48.840Z,30.90
2018-12-25T05:40:48.863Z,30.80
2018-12-25T05:41:48.885Z,34.20
2018-12-25T05:42:48.909Z,28.10
2018-12-25T05:43:48.934Z,23.20
2018-12-25T05:44:48.956Z,28.10
2018-12-25T05:45:48.979Z,23.30
2018-12-25T05:46:49.002Z,25.30
2018-12-25T05:47:49.025Z,23.20
2018-12-25T05:48:49.048Z,31.90
2018-12-25T05:49:49.071Z,30.60
2018-12-25T05:50:49.094Z,28.50
2018-12-25T05:51:49.206Z,26.40
2018-12-25T05:52:49.142Z,27.60
2018-12-25T05:53:49.165Z,23.50
2018-12-25T05:54:49.190Z,27.40
2018-12-25T05:55:49.211Z,26.20
2018-12-25T05:56:49.237Z,27.00
2018-12-25T05:57:49.257Z,28.90
2018-12-25T05:58:49.532Z,32.60
2018-12-25T05:59:49.303Z,27.30
2018-12-25T06:00:49.327Z,28.40
2018-12-25T06:01:49.350Z,26.50
2018-12-25T06:02:49.373Z,23.60
2018-12-25T06:03:49.396Z,21.70
2018-12-25T06:04:49.421Z,23.40
2018-12-25T06:05:49.443Z,24.80
2018-12-25T06:06:49.464Z,25.90
2018-12-25T06:07:49.533Z,21.10
2018-12-25T06:08:49.511Z,23.10
2018-12-25T06:09:49.533Z,25.20
2018-12-25T06:10:49.558Z,27.00
2018-12-25T06:11:49.581Z,29.80
2018-12-25T06:12:49.604Z,25.10
2018-12-25T06:13:49.625Z,21.20
2018-12-25T06:14:49.649Z,20.40
2018-12-25T06:15:49.674Z,21.70
2018-12-25T06:16:49.696Z,25.80
2018-12-25T06:17:49.718Z,22.80
2018-12-25T06:18:49.741Z,20.90
2018-12-25T06:19:49.764Z,22.40
2018-12-25T06:20:55.075Z,30.40
2018-12-25T06:21:49.810Z,30.60
2018-12-25T06:22:49.833Z,29.50
2018-12-25T06:23:49.858Z,28.60
2018-12-25T06:24:49.881Z,23.60
2018-12-25T06:25:49.902Z,27.40
2018-12-25T06:26:49.926Z,33.30
2018-12-25T06:27:49.952Z,28.00
2018-12-25T06:28:49.972Z,24.20
2018-12-25T06:29:49.993Z,33.90
2018-12-25T06:30:50.018Z,22.80
2018-12-25T06:31:50.042Z,29.30
2018-12-25T06:32:50.065Z,26.50
2018-12-25T06:33:50.084Z,25.90
2018-12-25T06:34:50.110Z,27.10
2018-12-25T06:35:50.132Z,26.60
2018-12-25T06:36:50.157Z,24.20
2018-12-25T06:37:50.176Z,25.30
2018-12-25T06:38:50.201Z,25.60
2018-12-25T06:39:50.224Z,26.00
2018-12-25T06:40:50.247Z,24.60
2018-12-25T06:41:50.268Z,27.10
2018-12-25T06:42:50.292Z,24.70
2018-12-25T06:43:50.315Z,22.20
2018-12-25T06:44:50.340Z,21.70
2018-12-25T06:45:50.361Z,23.50
2018-12-25T06:46:50.383Z,23.50
2018-12-25T06:47:50.408Z,21.60
2018-12-25T06:48:50.431Z,21.20
2018-12-25T06:49:50.453Z,22.40
2018-12-25T06:50:50.477Z,19.20
2018-12-25T06:51:50.499Z,20.60
2018-12-25T06:52:50.522Z,21.10
2018-12-25T06:53:50.545Z,19.30
2018-12-25T06:54:50.568Z,20.60
2018-12-25T06:55:50.590Z,20.50
2018-12-25T06:56:50.613Z,20.50
2018-12-25T06:57:50.636Z,20.90
2018-12-25T06:58:50.660Z,23.10
2018-12-25T06:59:50.682Z,21.90
2018-12-25T07:00:50.705Z,22.70
2018-12-25T07:01:50.728Z,22.40
2018-12-25T07:02:50.751Z,23.40
2018-12-25T07:03:50.774Z,21.30
2018-12-25T07:04:50.797Z,22.30
2018-12-25T07:05:50.819Z,22.50
2018-12-25T07:06:50.842Z,24.70
2018-12-25T07:07:50.865Z,19.40
2018-12-25T07:08:50.892Z,22.40
2018-12-25T07:09:50.911Z,31.00
2018-12-25T07:10:50.935Z,27.40
2018-12-25T07:11:50.956Z,22.70
2018-12-25T07:12:50.980Z,20.50
2018-12-25T07:13:51.002Z,22.30
2018-12-25T07:14:51.024Z,21.60
2018-12-25T07:15:51.047Z,23.40
2018-12-25T07:16:51.071Z,71.20
2018-12-25T07:17:51.093Z,26.70
2018-12-25T07:18:51.114Z,18.80
2018-12-25T07:19:51.138Z,20.60
2018-12-25T07:20:51.163Z,18.50
2018-12-25T07:21:51.185Z,32.00
2018-12-25T07:22:51.206Z,24.20
2018-12-25T07:23:51.230Z,23.00
2018-12-25T07:24:51.254Z,24.10
2018-12-25T07:25:51.726Z,21.90
2018-12-25T07:26:51.297Z,22.50
2018-12-25T07:27:51.318Z,24.60
2018-12-25T07:28:51.343Z,24.80
2018-12-25T07:29:51.365Z,25.40
2018-12-25T07:30:51.389Z,26.30
2018-12-25T07:31:51.411Z,22.50
2018-12-25T07:32:51.434Z,22.70
2018-12-25T07:33:51.460Z,23.00
2018-12-25T07:34:51.479Z,24.00
2018-12-25T07:35:51.503Z,25.20
2018-12-25T07:36:51.525Z,18.40
2018-12-25T07:37:51.546Z,19.60
2018-12-25T07:38:51.572Z,23.90
2018-12-25T07:39:51.597Z,22.40
2018-12-25T07:40:51.616Z,24.60
2018-12-25T07:41:51.641Z,23.80
2018-12-25T07:42:51.661Z,18.10
2018-12-25T07:43:51.684Z,19.30
2018-12-25T07:44:51.708Z,18.70
2018-12-25T07:45:51.730Z,17.30
2018-12-25T07:46:51.752Z,19.80
2018-12-25T07:47:51.776Z,19.40
2018-12-25T07:48:51.801Z,21.90
2018-12-25T07:49:51.822Z,22.80
2018-12-25T07:50:51.845Z,27.10
2018-12-25T07:51:51.870Z,26.00
2018-12-25T07:52:51.891Z,25.70
2018-12-25T07:53:51.916Z,26.20
2018-12-25T07:54:51.935Z,24.60
2018-12-25T07:55:51.959Z,29.30
2018-12-25T07:56:51.983Z,26.80
2018-12-25T07:57:52.004Z,24.20
2018-12-25T07:58:52.027Z,26.50
2018-12-25T07:59:52.050Z,25.60
2018-12-25T08:00:52.074Z,22.20
2018-12-25T08:01:52.095Z,23.10
2018-12-25T08:02:52.117Z,25.00
2018-12-25T08:03:52.141Z,26.10
2018-12-25T08:04:52.165Z,23.40
2018-12-25T08:05:53.483Z,22.20
2018-12-25T08:06:52.213Z,21.80
2018-12-25T08:07:52.231Z,24.80
2018-12-25T08:08:52.256Z,25.90
2018-12-25T08:09:52.277Z,31.30
2018-12-25T08:10:52.302Z,25.40
2018-12-25T08:11:52.374Z,21.80
2018-12-25T08:12:52.397Z,22.90
2018-12-25T08:13:52.368Z,24.90
2018-12-25T08:14:52.390Z,24.80
2018-12-25T08:15:52.415Z,20.10
2018-12-25T08:16:52.437Z,20.10
2018-12-25T08:17:52.459Z,20.20
2018-12-25T08:18:52.481Z,20.20
2018-12-25T08:19:52.504Z,20.50
2018-12-25T08:20:52.528Z,21.60
2018-12-25T08:21:52.550Z,24.00
2018-12-25T08:22:52.571Z,19.10
2018-12-25T08:23:52.601Z,21.00
2018-12-25T08:24:52.620Z,21.70
2018-12-25T08:25:52.640Z,22.00
2018-12-25T08:26:52.663Z,24.80
2018-12-25T08:27:52.688Z,22.00
2018-12-25T08:28:52.709Z,28.10
2018-12-25T08:29:52.732Z,27.50
2018-12-25T08:30:52.755Z,26.70
2018-12-25T08:31:52.778Z,27.80
2018-12-25T08:32:52.801Z,27.60
2018-12-25T08:33:52.822Z,22.60
2018-12-25T08:34:52.846Z,22.00
2018-12-25T08:35:52.869Z,21.30
2018-12-25T08:36:52.892Z,24.70
2018-12-25T08:37:52.915Z,19.40
2018-12-25T08:38:52.938Z,20.70
2018-12-25T08:39:52.964Z,19.90
2018-12-25T08:40:52.985Z,19.30
2018-12-25T08:41:53.008Z,17.30
2018-12-25T08:42:53.032Z,17.30
2018-12-25T08:43:53.056Z,15.10
2018-12-25T08:44:53.078Z,16.50
2018-12-25T08:45:53.104Z,16.10
2018-12-25T08:46:53.125Z,18.10
2018-12-25T08:47:53.150Z,16.60
2018-12-25T08:48:53.172Z,17.90
2018-12-25T08:49:53.197Z,21.60
2018-12-25T08:50:53.224Z,19.80
2018-12-25T08:51:53.245Z,20.80
2018-12-25T08:52:53.269Z,24.30
2018-12-25T08:53:53.289Z,24.00
2018-12-25T08:54:53.315Z,22.40
2018-12-25T08:55:53.338Z,20.80
2018-12-25T08:56:53.364Z,17.40
2018-12-25T08:57:54.898Z,20.30
2018-12-25T08:58:53.410Z,18.40
2018-12-25T08:59:53.435Z,19.10
2018-12-25T09:00:53.462Z,20.10
2018-12-25T09:01:53.483Z,18.40
2018-12-25T09:02:53.506Z,19.00
2018-12-25T09:03:53.531Z,18.10
2018-12-25T09:04:53.554Z,18.70
2018-12-25T09:05:53.577Z,18.00
2018-12-25T09:06:53.602Z,23.20
2018-12-25T09:07:53.626Z,17.50
2018-12-25T09:08:53.650Z,18.20
2018-12-25T09:09:53.672Z,21.70
2018-12-25T09:10:53.697Z,19.80
2018-12-25T09:11:53.720Z,21.50
2018-12-25T09:12:53.746Z,19.30
2018-12-25T09:13:53.769Z,19.80
2018-12-25T09:14:53.791Z,21.10
2018-12-25T09:15:53.816Z,20.10
2018-12-25T09:16:53.841Z,21.00
2018-12-25T09:17:53.863Z,22.20
2018-12-25T09:18:53.888Z,18.30
2018-12-25T09:19:56.767Z,19.30
2018-12-25T09:20:53.938Z,18.40
2018-12-25T09:21:53.960Z,19.30
2018-12-25T09:22:53.984Z,17.90
2018-12-25T09:23:54.007Z,18.30
2018-12-25T09:24:54.081Z,20.60
2018-12-25T09:25:54.054Z,16.80
2018-12-25T09:26:54.171Z,16.90
2018-12-25T09:27:54.103Z,16.20
2018-12-25T09:28:54.129Z,15.90
2018-12-25T09:29:54.151Z,16.80
2018-12-25T09:30:54.174Z,16.00
2018-12-25T09:31:54.201Z,18.80
2018-12-25T09:32:54.222Z,21.50
2018-12-25T09:33:54.256Z,21.00
2018-12-25T09:34:54.270Z,20.40
2018-12-25T09:35:54.295Z,16.90
2018-12-25T09:36:54.318Z,18.00
2018-12-25T09:37:54.346Z,18.30
2018-12-25T09:38:54.366Z,17.20
2018-12-25T09:39:54.390Z,18.30
2018-12-25T09:40:56.290Z,17.90
2018-12-25T09:41:54.438Z,19.10
2018-12-25T09:42:54.462Z,17.00
2018-12-25T09:43:54.488Z,16.40
2018-12-25T09:44:54.512Z,15.80
2018-12-25T09:45:54.534Z,17.70
2018-12-25T09:46:54.559Z,17.40
2018-12-25T09:47:54.584Z,16.80
2018-12-25T09:48:54.609Z,16.90
2018-12-25T09:49:54.631Z,17.80
2018-12-25T09:50:54.655Z,19.10
2018-12-25T09:51:54.892Z,17.90
2018-12-25T09:52:54.705Z,19.00
2018-12-25T09:53:54.726Z,21.50
2018-12-25T09:54:54.750Z,19.20
2018-12-25T09:55:54.773Z,20.90
2018-12-25T09:56:54.798Z,19.20
2018-12-25T09:57:54.822Z,20.10
2018-12-25T09:58:54.845Z,20.20
2018-12-25T09:59:54.870Z,19.50
2018-12-25T10:00:54.893Z,21.70
2018-12-25T10:01:54.918Z,22.80
2018-12-25T10:02:54.939Z,21.90
2018-12-25T10:03:54.967Z,23.80
2018-12-25T10:04:56.598Z,23.00
2018-12-25T10:05:55.014Z,24.20
2018-12-25T10:06:55.040Z,30.70
2018-12-25T10:07:55.061Z,27.20
2018-12-25T10:08:55.084Z,26.00
2018-12-25T10:09:55.107Z,24.60
2018-12-25T10:10:55.132Z,22.40
2018-12-25T10:11:55.156Z,25.00
2018-12-25T10:12:55.181Z,24.30
2018-12-25T10:13:55.202Z,25.00
2018-12-25T10:14:55.228Z,22.90
2018-12-25T10:15:55.253Z,21.90
2018-12-25T10:16:55.276Z,23.80
2018-12-25T10:17:55.303Z,20.20
2018-12-25T10:18:55.323Z,22.80
2018-12-25T10:19:55.347Z,22.80
2018-12-25T10:20:55.372Z,23.80
2018-12-25T10:22:02.779Z,23.60
2018-12-25T10:22:55.422Z,22.10
2018-12-25T10:23:55.446Z,26.20
2018-12-25T10:24:55.469Z,24.80
2018-12-25T10:25:56.134Z,25.10
2018-12-25T10:26:55.517Z,26.60
2018-12-25T10:27:55.542Z,25.70
2018-12-25T10:28:55.570Z,25.60
2018-12-25T10:29:55.590Z,23.20
2018-12-25T10:30:55.615Z,24.40
2018-12-25T10:31:55.639Z,25.60
2018-12-25T10:32:55.663Z,26.80
2018-12-25T10:33:55.687Z,26.50
2018-12-25T10:34:55.711Z,28.90
2018-12-25T10:35:55.736Z,29.00
2018-12-25T10:36:55.761Z,25.10
2018-12-25T10:37:55.785Z,24.90
2018-12-25T10:38:55.809Z,26.00
2018-12-25T10:39:55.834Z,24.70
2018-12-25T10:40:55.858Z,26.90
2018-12-25T10:41:55.886Z,25.30
2018-12-25T10:42:55.908Z,25.50
2018-12-25T10:43:55.932Z,23.80
2018-12-25T10:44:55.986Z,22.70
2018-12-25T10:45:55.981Z,18.60
2018-12-25T10:46:56.007Z,20.80
2018-12-25T10:47:56.033Z,26.80
2018-12-25T10:48:56.057Z,22.10
2018-12-25T10:49:56.084Z,18.30
2018-12-25T10:50:56.105Z,21.80
2018-12-25T10:51:56.130Z,17.10
2018-12-25T10:52:56.155Z,16.80
2018-12-25T10:53:56.179Z,20.10
2018-12-25T10:54:56.204Z,21.10
2018-12-25T10:55:56.230Z,23.00
2018-12-25T10:56:56.255Z,18.50
2018-12-25T10:57:56.280Z,20.30
2018-12-25T10:58:56.305Z,18.60
2018-12-25T10:59:56.331Z,19.60
2018-12-25T11:00:56.356Z,19.30
2018-12-25T11:01:56.379Z,19.40
2018-12-25T11:02:56.406Z,19.90
2018-12-25T11:03:56.430Z,20.60
2018-12-25T11:04:56.457Z,19.70
2018-12-25T11:05:56.480Z,19.60
2018-12-25T11:06:56.507Z,20.60
2018-12-25T11:07:56.532Z,19.70
2018-12-25T11:08:56.557Z,18.20
2018-12-25T11:09:56.582Z,18.10
2018-12-25T11:10:56.606Z,17.90
2018-12-25T11:11:56.636Z,18.00
2018-12-25T11:12:56.658Z,18.60
2018-12-25T11:13:56.683Z,19.60
2018-12-25T11:14:56.710Z,18.90
2018-12-25T11:15:56.733Z,19.70
2018-12-25T11:16:56.762Z,60.20
2018-12-25T11:17:56.789Z,98.20
2018-12-25T11:18:56.809Z,43.30
2018-12-25T11:19:56.836Z,33.30
2018-12-25T11:20:56.860Z,26.60
2018-12-25T11:21:56.886Z,21.70
2018-12-25T11:22:56.910Z,21.10
2018-12-25T11:23:56.935Z,20.70
2018-12-25T11:24:56.960Z,22.00
2018-12-25T11:25:56.984Z,20.00
2018-12-25T11:26:57.009Z,19.70
2018-12-25T11:27:57.034Z,20.60
2018-12-25T11:28:57.060Z,21.30
2018-12-25T11:29:57.085Z,21.10
2018-12-25T11:30:57.108Z,23.40
2018-12-25T11:31:57.134Z,22.80
2018-12-25T11:32:57.160Z,21.20
2018-12-25T11:33:57.183Z,22.70
2018-12-25T11:34:57.458Z,22.50
2018-12-25T11:35:57.232Z,22.30
2018-12-25T11:36:57.285Z,21.20
2018-12-25T11:37:57.282Z,20.50
2018-12-25T11:38:57.307Z,19.20
2018-12-25T11:39:57.330Z,22.70
2018-12-25T11:40:57.356Z,21.90
2018-12-25T11:41:57.382Z,21.80
2018-12-25T11:42:57.404Z,22.30
2018-12-25T11:43:57.432Z,22.30
2018-12-25T11:44:57.452Z,24.70
2018-12-25T11:45:57.478Z,24.20
2018-12-25T11:46:57.503Z,26.40
2018-12-25T11:47:57.527Z,23.70
2018-12-25T11:48:57.551Z,26.20
2018-12-25T11:49:57.575Z,24.90
2018-12-25T11:50:57.599Z,25.80
2018-12-25T11:51:57.626Z,24.70
2018-12-25T11:52:57.649Z,25.40
2018-12-25T11:53:57.672Z,25.00
2018-12-25T11:54:57.697Z,25.20
2018-12-25T11:55:57.721Z,23.60
2018-12-25T11:56:57.746Z,28.60
2018-12-25T11:57:57.770Z,24.20
2018-12-25T11:58:57.794Z,23.40
2018-12-25T11:59:57.869Z,22.90
2018-12-25T12:00:57.844Z,24.60
2018-12-25T12:01:57.866Z,23.80
2018-12-25T12:02:57.892Z,22.50
2018-12-25T12:03:57.917Z,21.70
2018-12-25T12:04:57.941Z,22.70
2018-12-25T12:05:57.968Z,23.70
2018-12-25T12:06:58.001Z,23.90
2018-12-25T12:07:58.015Z,21.40
2018-12-25T12:08:58.041Z,23.90
2018-12-25T12:09:58.065Z,21.40
2018-12-25T12:10:58.090Z,26.10
2018-12-25T12:11:58.117Z,22.60
2018-12-25T12:12:58.142Z,24.50
2018-12-25T12:13:58.164Z,24.20
2018-12-25T12:14:58.577Z,23.30
2018-12-25T12:15:58.218Z,23.30
2018-12-25T12:16:58.243Z,22.50
2018-12-25T12:17:58.266Z,22.80
2018-12-25T12:18:58.294Z,21.70
2018-12-25T12:19:58.316Z,20.70
2018-12-25T12:20:58.341Z,20.60
2018-12-25T12:21:58.367Z,22.50
2018-12-25T12:22:58.394Z,22.60
2018-12-25T12:23:58.416Z,22.30
2018-12-25T12:24:58.441Z,23.30
2018-12-25T12:25:58.466Z,23.80
2018-12-25T12:26:58.493Z,24.90
2018-12-25T12:27:58.519Z,26.00
2018-12-25T12:28:58.541Z,27.90
2018-12-25T12:29:58.568Z,29.10
2018-12-25T12:30:58.593Z,28.90
2018-12-25T12:31:58.623Z,26.50
2018-12-25T12:32:58.643Z,28.30
2018-12-25T12:33:58.666Z,28.10
2018-12-25T12:34:58.692Z,27.70
2018-12-25T12:35:58.720Z,29.70
2018-12-25T12:36:58.743Z,29.30
2018-12-25T12:37:58.767Z,30.20
2018-12-25T12:38:58.793Z,31.60
2018-12-25T12:39:58.817Z,28.70
2018-12-25T12:40:58.843Z,29.30
2018-12-25T12:41:58.917Z,31.20
2018-12-25T12:42:58.893Z,31.10
2018-12-25T12:43:58.918Z,29.00
2018-12-25T12:44:58.943Z,29.80
2018-12-25T12:45:58.967Z,30.20
2018-12-25T12:46:58.992Z,26.90
2018-12-25T12:47:59.018Z,26.80
2018-12-25T12:48:59.047Z,27.10
2018-12-25T12:49:59.070Z,26.20
2018-12-25T12:50:59.093Z,26.30
2018-12-25T12:51:59.119Z,26.90
2018-12-25T12:52:59.142Z,27.60